Last 24 Hours

Modesto Jr College

15 Minute Data | America/Los_Angeles
as of 6/26/22 1:19 PM PDT
Date & Time Temp (°F) RH (%) Dew Pt (°F) Wind Spd (mph) Wind Dir (°) Wind Gust (mph) Latest Rain (In) Daily Rain (In) Daily Min Temp (°F) Daily Max Temp (°F)
6/26/22 - 1315 92.5 25 52.0 3.9 NW | 315 7.0 0.00 0.00 53.6 93.6
6/26/22 - 1300 92.9 24 51.0 4.0 W | 274 9.6 0.00 0.00 53.6 93.6
6/26/22 - 1245 92.0 24 49.5 3.9 WNW | 288 10.1 0.00 0.00 53.6 93.0
6/26/22 - 1230 91.0 24 49.5 4.0 WNW | 300 9.2 0.00 0.00 53.6 91.6
6/26/22 - 1215 90.2 25 49.8 4.4 NW | 305 10.1 0.00 0.00 53.6 91.4
6/26/22 - 1200 89.4 24 48.2 5.0 WNW | 303 9.4 0.00 0.00 53.6 90.0
6/26/22 - 1145 88.6 23 45.9 5.9 WNW | 302 9.6 0.00 0.00 53.6 89.1
6/26/22 - 1130 87.5 23 44.7 5.3 WNW | 303 9.0 0.00 0.00 53.6 88.4
6/26/22 - 1115 87.0 24 45.3 5.4 NW | 304 9.4 0.00 0.00 53.6 87.9
6/26/22 - 1100 86.3 26 47.5 5.0 WNW | 297 10.3 0.00 0.00 53.6 87.4
6/26/22 - 1045 84.6 29 49.0 5.2 WNW | 302 8.8 0.00 0.00 53.6 85.2
6/26/22 - 1030 84.0 31 49.8 4.9 WNW | 303 8.6 0.00 0.00 53.6 84.8
6/26/22 - 1015 82.5 32 49.5 4.5 NW | 314 7.7 0.00 0.00 53.6 83.6
6/26/22 - 1000 82.9 33 50.6 4.7 WNW | 292 8.6 0.00 0.00 53.6 83.2
6/26/22 - 0945 81.4 34 50.1 4.2 WNW | 292 8.1 0.00 0.00 53.6 82.4
6/26/22 - 0930 79.4 36 50.0 4.9 WNW | 296 7.5 0.00 0.00 53.6 80.8
6/26/22 - 0915 77.9 38 50.1 4.9 NW | 311 9.0 0.00 0.00 53.6 78.5
6/26/22 - 0900 77.5 40 51.0 4.3 NW | 310 8.3 0.00 0.00 53.6 78.1
6/26/22 - 0845 76.7 42 51.6 3.9 WNW | 292 6.6 0.00 0.00 53.6 78.1
6/26/22 - 0830 74.4 44 51.3 4.5 NW | 305 7.2 0.00 0.00 53.6 75.5
6/26/22 - 0815 73.4 48 52.3 3.9 NW | 307 6.8 0.00 0.00 53.6 74.0
6/26/22 - 0800 71.4 50 52.1 3.9 WNW | 289 6.6 0.00 0.00 53.6 72.9
6/26/22 - 0745 70.2 54 52.8 3.8 NW | 316 6.8 0.00 0.00 53.6 70.9
6/26/22 - 0730 70.3 55 53.5 1.8 WNW | 287 3.5 0.00 0.00 53.6 70.9
6/26/22 - 0715 67.6 62 54.2 1.8 W | 262 3.1 0.00 0.00 53.6 69.5
6/26/22 - 0700 63.6 72 54.2 1.3 WSW | 250 2.4 0.00 0.00 53.6 68.8
6/26/22 - 0645 60.1 78 53.3 1.1 W | 262 3.1 0.00 0.00 53.6 68.8
6/26/22 - 0630 57.3 84 52.4 1.5 W | 260 2.8 0.00 0.00 53.6 68.8
6/26/22 - 0615 55.4 89 52.3 0.4 WNW | 288 1.3 0.00 0.00 53.6 68.8
6/26/22 - 0600 54.2 88 50.6 1.1 W | 263 2.6 0.00 0.00 53.6 68.8
6/26/22 - 0545 55.1 87 51.5 0.9 WNW | 286 2.2 0.00 0.00 54.6 68.8
6/26/22 - 0530 55.6 85 51.0 0.6 W | 278 1.5 0.00 0.00 54.8 68.8
6/26/22 - 0515 56.5 84 51.9 0.8 WNW | 302 2.6 0.00 0.00 56.2 68.8
6/26/22 - 0500 56.5 81 50.8 1.7 WNW | 303 3.5 0.00 0.00 56.2 68.8
6/26/22 - 0445 57.1 78 50.4 2.6 WSW | 258 3.7 0.00 0.00 56.5 68.8
6/26/22 - 0430 57.8 77 50.7 2.2 W | 278 3.9 0.00 0.00 56.8 68.8
6/26/22 - 0415 57.3 79 50.8 1.5 WNW | 292 3.1 0.00 0.00 56.8 68.8
6/26/22 - 0400 57.4 78 50.4 1.2 W | 272 2.0 0.00 0.00 56.8 68.8
6/26/22 - 0345 58.4 75 50.4 1.5 WSW | 257 2.6 0.00 0.00 57.6 68.8
6/26/22 - 0330 59.1 74 50.8 1.6 WNW | 288 3.3 0.00 0.00 58.8 68.8
6/26/22 - 0315 59.4 74 50.9 3.2 WSW | 254 4.4 0.00 0.00 58.9 68.8
6/26/22 - 0300 60.3 71 50.8 3.0 WSW | 254 4.4 0.00 0.00 60.0 68.8
6/26/22 - 0245 61.2 66 49.8 2.1 W | 268 3.7 0.00 0.00 60.1 68.8
6/26/22 - 0230 61.4 65 49.4 1.7 WNW | 291 3.5 0.00 0.00 60.9 68.8
6/26/22 - 0215 62.5 61 48.9 2.1 W | 269 3.7 0.00 0.00 61.6 68.8
6/26/22 - 0200 65.2 55 48.9 2.6 W | 281 4.6 0.00 0.00 63.1 68.8
6/26/22 - 0145 67.4 48 47.4 1.7 NW | 323 3.3 0.00 0.00 66.7 68.8
6/26/22 - 0130 68.0 48 47.3 2.3 NNW | 340 4.8 0.00 0.00 67.6 68.8
6/26/22 - 0115 68.6 47 47.5 3.7 N | 6 6.6 0.00 0.00 68.2 68.8
6/26/22 - 0100 68.5 47 47.4 3.7 N | 10 6.4 0.00 0.00 56.0 96.0
6/26/22 - 0045 68.0 47 47.2 3.5 N | 10 6.4 0.00 0.00 56.0 96.0
6/26/22 - 0030 67.9 47 47.0 1.1 N | 11 3.3 0.00 0.00 56.0 96.0
6/26/22 - 0015 69.6 43 46.1 1.2 NW | 314 3.3 0.00 0.00 56.0 96.0
6/26/22 - 0000 71.9 38 44.6 1.9 NW | 313 4.2 0.00 0.00 56.0 96.0
6/25/22 - 2345 73.1 34 43.4 2.4 NNW | 335 4.8 0.00 0.00 56.0 96.0
6/25/22 - 2330 74.1 32 42.6 2.3 N | 354 5.0 0.00 0.00 56.0 96.0
6/25/22 - 2315 74.5 32 42.4 5.3 N | 1 8.8 0.00 0.00 56.0 96.0
6/25/22 - 2300 75.2 29 41.2 4.1 N | 4 9.6 0.00 0.00 56.0 96.0
6/25/22 - 2245 76.1 28 40.4 3.7 N | 1 7.0 0.00 0.00 56.0 96.0
6/25/22 - 2230 76.9 26 39.8 4.0 N | 1 7.5 0.00 0.00 56.0 96.0
6/25/22 - 2215 77.6 26 40.2 4.6 N | 357 9.2 0.00 0.00 56.0 96.0
6/25/22 - 2200 77.6 27 40.7 4.8 NNW | 334 9.4 0.00 0.00 56.0 96.0
6/25/22 - 2145 77.8 28 41.8 3.3 NNW | 334 8.1 0.00 0.00 56.0 96.0
6/25/22 - 2130 78.4 28 42.3 3.4 NW | 324 7.0 0.00 0.00 56.0 96.0
6/25/22 - 2115 80.1 25 41.5 2.0 NNW | 342 4.2 0.00 0.00 56.0 96.0
6/25/22 - 2100 81.1 20 36.1 4.6 NW | 322 8.8 0.00 0.00 56.0 96.0
6/25/22 - 2045 82.1 21 38.4 3.7 NNW | 329 8.6 0.00 0.00 56.0 96.0
6/25/22 - 2030 83.9 21 39.4 5.5 WNW | 302 9.9 0.00 0.00 56.0 96.0
6/25/22 - 2015 85.1 23 43.3 5.3 WNW | 296 9.9 0.00 0.00 56.0 96.0
6/25/22 - 2000 86.7 25 46.4 5.0 WNW | 294 9.9 0.00 0.00 56.0 96.0
6/25/22 - 1945 88.6 23 45.9 5.0 WNW | 297 7.9 0.00 0.00 56.0 96.0
6/25/22 - 1930 90.2 22 45.8 5.9 WNW | 291 11.2 0.00 0.00 56.0 96.0
6/25/22 - 1915 91.7 21 45.8 5.7 WNW | 293 9.2 0.00 0.00 56.0 96.0
6/25/22 - 1900 92.9 20 46.4 5.6 WNW | 292 11.4 0.00 0.00 56.0 96.0
6/25/22 - 1845 93.8 19 45.9 6.7 WNW | 290 10.7 0.00 0.00 56.0 96.0
6/25/22 - 1830 94.6 19 46.1 6.2 WNW | 299 11.2 0.00 0.00 56.0 96.0
6/25/22 - 1815 95.0 19 46.3 6.0 WNW | 303 12.5 0.00 0.00 56.0 96.0
6/25/22 - 1800 95.4 19 46.6 6.1 NW | 304 12.9 0.00 0.00 56.0 96.0
6/25/22 - 1745 95.4 20 47.9 5.7 NW | 317 10.5 0.00 0.00 56.0 96.0
6/25/22 - 1730 95.3 19 46.0 6.6 NW | 323 11.4 0.00 0.00 56.0 96.0
6/25/22 - 1715 95.4 19 46.3 7.5 NNW | 333 12.5 0.00 0.00 56.0 96.0
6/25/22 - 1700 95.5 20 47.8 6.5 NNW | 329 12.3 0.00 0.00 56.0 96.0
6/25/22 - 1645 95.4 19 46.1 7.1 NNW | 334 12.7 0.00 0.00 56.0 96.0
6/25/22 - 1630 95.4 18 45.8 6.9 NNW | 338 12.9 0.00 0.00 56.0 96.0
6/25/22 - 1615 95.2 18 44.8 7.4 NNW | 337 14.2 0.00 0.00 56.0 96.0
6/25/22 - 1600 95.2 19 47.0 6.9 NNW | 343 12.1 0.00 0.00 56.0 96.0
6/25/22 - 1545 95.3 19 47.0 5.7 NNW | 334 10.7 0.00 0.00 56.0 96.0
6/25/22 - 1530 94.7 20 47.0 7.2 NNW | 348 13.6 0.00 0.00 56.0 95.2
6/25/22 - 1515 94.9 21 48.6 6.5 NNW | 331 12.1 0.00 0.00 56.0 95.2
6/25/22 - 1500 94.1 22 49.1 6.3 NNW | 337 12.9 0.00 0.00 56.0 94.8
6/25/22 - 1445 93.7 23 50.0 6.3 NNW | 341 11.8 0.00 0.00 56.0 94.2
6/25/22 - 1430 93.0 24 51.3 6.8 NNW | 340 12.7 0.00 0.00 56.0 93.8
6/25/22 - 1415 92.9 25 51.5 7.1 NNW | 348 12.3 0.00 0.00 56.0 93.8
6/25/22 - 1400 93.3 23 50.1 7.3 NW | 310 12.9 0.00 0.00 56.0 93.8
6/25/22 - 1345 92.8 21 46.6 6.8 NW | 310 12.3 0.00 0.00 56.0 93.2
6/25/22 - 1330 91.7 20 45.6 6.0 NW | 323 10.1 0.00 0.00 56.0 92.9
6/25/22 - 1315 91.0 22 46.9 6.8 NNW | 336 12.7 0.00 0.00 56.0 92.0
Max 95.5 89 54.2 7.5 - 14.2 0.00 0.00 68.2 96.0
Avg 78.6 39 47.7 4.1 - 7.7 0.00 - - -
Min 54.2 18 36.1 0.4 - 1.3 0.00 0.00 53.6 68.8
Total - - - - - - 0.00 - - -